<?xml version="1.0" encoding="UTF-8" standalone="no" ?>
<gpx xmlns="http://www.topografix.com/GPX/1/1" xmlns:xsi="http://www.w3.org/2001/XMLSchema-instance" xsi:schemaLocation="http://www.topografix.com/GPX/1/1 http://www.topografix.com/GPX/1/1/gpx.xsd" version="1.1" creator="VisuGPX - https://www.visugpx.com">
  <metadata>
    <name>Ski Grande Sure en boucle par le Cul de Lampe et le Pas de la Biche</name>
    <desc><![CDATA[Itinéraire suivi : Curière, Belvédère de None, Cul de Lampe, Col de la Sure, Grande Sure, Col de la Petite Vache, Petite Vache, Pas de la Biche, Curière
]]></desc>
  </metadata>
  <trk>
    <name><![CDATA[2012-02-09-01]]></name>
    <trkseg>
      <trkpt lat="45.35798" lon="5.7445">
        <ele>887.850341</ele>
        <time>2012-02-09T08:53:44Z</time>
      </trkpt>
      <trkpt lat="45.35773" lon="5.74448">
        <ele>847.5</ele>
        <time>2012-02-09T08:55:57Z</time>
      </trkpt>
      <trkpt lat="45.35732" lon="5.74407">
        <ele>866.5</ele>
        <time>2012-02-09T08:57:06Z</time>
      </trkpt>
      <trkpt lat="45.35723" lon="5.7426">
        <ele>886.1</ele>
        <time>2012-02-09T08:58:45Z</time>
      </trkpt>
      <trkpt lat="45.35734" lon="5.74148">
        <ele>896.7</ele>
        <time>2012-02-09T08:59:58Z</time>
      </trkpt>
      <trkpt lat="45.35766" lon="5.7406">
        <ele>912.3</ele>
        <time>2012-02-09T09:01:08Z</time>
      </trkpt>
      <trkpt lat="45.35813" lon="5.73982">
        <ele>925.2</ele>
        <time>2012-02-09T09:02:25Z</time>
      </trkpt>
      <trkpt lat="45.35933" lon="5.73891">
        <ele>945.1</ele>
        <time>2012-02-09T09:04:40Z</time>
      </trkpt>
      <trkpt lat="45.35888" lon="5.73873">
        <ele>947.8</ele>
        <time>2012-02-09T09:05:18Z</time>
      </trkpt>
      <trkpt lat="45.35827" lon="5.73883">
        <ele>951.2</ele>
        <time>2012-02-09T09:06:05Z</time>
      </trkpt>
      <trkpt lat="45.35936" lon="5.7377">
        <ele>970</ele>
        <time>2012-02-09T09:08:13Z</time>
      </trkpt>
      <trkpt lat="45.35975" lon="5.7377">
        <ele>975.8</ele>
        <time>2012-02-09T09:09:02Z</time>
      </trkpt>
      <trkpt lat="45.35995" lon="5.73798">
        <ele>980.8</ele>
        <time>2012-02-09T09:09:37Z</time>
      </trkpt>
      <trkpt lat="45.36089" lon="5.73778">
        <ele>996.9</ele>
        <time>2012-02-09T09:11:11Z</time>
      </trkpt>
      <trkpt lat="45.36172" lon="5.73725">
        <ele>1010.8</ele>
        <time>2012-02-09T09:12:40Z</time>
      </trkpt>
      <trkpt lat="45.36167" lon="5.737">
        <ele>1013.7</ele>
        <time>2012-02-09T09:13:02Z</time>
      </trkpt>
      <trkpt lat="45.36137" lon="5.7371">
        <ele>1016.8</ele>
        <time>2012-02-09T09:13:27Z</time>
      </trkpt>
      <trkpt lat="45.36085" lon="5.73692">
        <ele>1023</ele>
        <time>2012-02-09T09:14:15Z</time>
      </trkpt>
      <trkpt lat="45.36055" lon="5.73641">
        <ele>1025.9</ele>
        <time>2012-02-09T09:15:39Z</time>
      </trkpt>
      <trkpt lat="45.36074" lon="5.73668">
        <ele>1025.2</ele>
        <time>2012-02-09T09:16:02Z</time>
      </trkpt>
      <trkpt lat="45.36136" lon="5.73665">
        <ele>1031.3</ele>
        <time>2012-02-09T09:16:59Z</time>
      </trkpt>
      <trkpt lat="45.36192" lon="5.73606">
        <ele>1043.2</ele>
        <time>2012-02-09T09:18:05Z</time>
      </trkpt>
      <trkpt lat="45.36266" lon="5.73481">
        <ele>1063.5</ele>
        <time>2012-02-09T09:20:07Z</time>
      </trkpt>
      <trkpt lat="45.36313" lon="5.73455">
        <ele>1071.5</ele>
        <time>2012-02-09T09:21:02Z</time>
      </trkpt>
      <trkpt lat="45.36316" lon="5.73429">
        <ele>1075.5</ele>
        <time>2012-02-09T09:21:24Z</time>
      </trkpt>
      <trkpt lat="45.36282" lon="5.73433">
        <ele>1080.4</ele>
        <time>2012-02-09T09:21:58Z</time>
      </trkpt>
      <trkpt lat="45.36279" lon="5.73413">
        <ele>1082.6</ele>
        <time>2012-02-09T09:22:44Z</time>
      </trkpt>
      <trkpt lat="45.36318" lon="5.73392">
        <ele>1089.7</ele>
        <time>2012-02-09T09:24:02Z</time>
      </trkpt>
      <trkpt lat="45.36368" lon="5.73433">
        <ele>1098.8</ele>
        <time>2012-02-09T09:24:59Z</time>
      </trkpt>
      <trkpt lat="45.36461" lon="5.73556">
        <ele>1124.6</ele>
        <time>2012-02-09T09:27:23Z</time>
      </trkpt>
      <trkpt lat="45.36596" lon="5.73623">
        <ele>1151</ele>
        <time>2012-02-09T09:30:01Z</time>
      </trkpt>
      <trkpt lat="45.36637" lon="5.7366">
        <ele>1159.7</ele>
        <time>2012-02-09T09:30:53Z</time>
      </trkpt>
      <trkpt lat="45.36738" lon="5.73698">
        <ele>1177.1</ele>
        <time>2012-02-09T09:32:45Z</time>
      </trkpt>
      <trkpt lat="45.36828" lon="5.73777">
        <ele>1199.1</ele>
        <time>2012-02-09T09:34:43Z</time>
      </trkpt>
      <trkpt lat="45.3689" lon="5.7381">
        <ele>1210.3</ele>
        <time>2012-02-09T09:35:57Z</time>
      </trkpt>
      <trkpt lat="45.36995" lon="5.73835">
        <ele>1229.9</ele>
        <time>2012-02-09T09:37:50Z</time>
      </trkpt>
      <trkpt lat="45.37018" lon="5.73821">
        <ele>1234</ele>
        <time>2012-02-09T09:38:54Z</time>
      </trkpt>
      <trkpt lat="45.36998" lon="5.73813">
        <ele>1235.7</ele>
        <time>2012-02-09T09:40:01Z</time>
      </trkpt>
      <trkpt lat="45.36992" lon="5.73719">
        <ele>1248.3</ele>
        <time>2012-02-09T09:41:27Z</time>
      </trkpt>
      <trkpt lat="45.36889" lon="5.73545">
        <ele>1246.5</ele>
        <time>2012-02-09T09:43:33Z</time>
      </trkpt>
      <trkpt lat="45.3686" lon="5.73444">
        <ele>1255.1</ele>
        <time>2012-02-09T09:44:41Z</time>
      </trkpt>
      <trkpt lat="45.36835" lon="5.73422">
        <ele>1263.4</ele>
        <time>2012-02-09T09:45:16Z</time>
      </trkpt>
      <trkpt lat="45.3677" lon="5.73262">
        <ele>1292.6</ele>
        <time>2012-02-09T09:48:11Z</time>
      </trkpt>
      <trkpt lat="45.36749" lon="5.73149">
        <ele>1304.8</ele>
        <time>2012-02-09T09:50:02Z</time>
      </trkpt>
      <trkpt lat="45.36752" lon="5.73111">
        <ele>1308.2</ele>
        <time>2012-02-09T09:50:45Z</time>
      </trkpt>
      <trkpt lat="45.36678" lon="5.73022">
        <ele>1325.3</ele>
        <time>2012-02-09T09:52:34Z</time>
      </trkpt>
      <trkpt lat="45.36641" lon="5.73001">
        <ele>1331.8</ele>
        <time>2012-02-09T09:53:26Z</time>
      </trkpt>
      <trkpt lat="45.36582" lon="5.72901">
        <ele>1346.5</ele>
        <time>2012-02-09T09:55:24Z</time>
      </trkpt>
      <trkpt lat="45.36538" lon="5.72871">
        <ele>1355.6</ele>
        <time>2012-02-09T09:56:25Z</time>
      </trkpt>
      <trkpt lat="45.36509" lon="5.72812">
        <ele>1332.5</ele>
        <time>2012-02-09T09:57:21Z</time>
      </trkpt>
      <trkpt lat="45.36408" lon="5.72764">
        <ele>1352.7</ele>
        <time>2012-02-09T09:59:18Z</time>
      </trkpt>
      <trkpt lat="45.36347" lon="5.72691">
        <ele>1363</ele>
        <time>2012-02-09T10:00:36Z</time>
      </trkpt>
      <trkpt lat="45.36223" lon="5.72643">
        <ele>1392.7</ele>
        <time>2012-02-09T10:03:19Z</time>
      </trkpt>
      <trkpt lat="45.36136" lon="5.72577">
        <ele>1396.3</ele>
        <time>2012-02-09T10:04:42Z</time>
      </trkpt>
      <trkpt lat="45.361" lon="5.7257">
        <ele>1399.3</ele>
        <time>2012-02-09T10:06:29Z</time>
      </trkpt>
      <trkpt lat="45.36107" lon="5.72571">
        <ele>1398.5</ele>
        <time>2012-02-09T10:06:47Z</time>
      </trkpt>
      <trkpt lat="45.35795" lon="5.72241">
        <ele>1456.5</ele>
        <time>2012-02-09T10:14:59Z</time>
      </trkpt>
      <trkpt lat="45.35738" lon="5.72202">
        <ele>1456.6</ele>
        <time>2012-02-09T10:16:04Z</time>
      </trkpt>
      <trkpt lat="45.35655" lon="5.72088">
        <ele>1442.2</ele>
        <time>2012-02-09T10:19:09Z</time>
      </trkpt>
      <trkpt lat="45.35677" lon="5.72034">
        <ele>1425</ele>
        <time>2012-02-09T10:19:59Z</time>
      </trkpt>
      <trkpt lat="45.35671" lon="5.72045">
        <ele>1420.9</ele>
        <time>2012-02-09T10:20:27Z</time>
      </trkpt>
      <trkpt lat="45.35622" lon="5.71963">
        <ele>1398</ele>
        <time>2012-02-09T10:22:14Z</time>
      </trkpt>
      <trkpt lat="45.35638" lon="5.71915">
        <ele>1399.3</ele>
        <time>2012-02-09T10:22:23Z</time>
      </trkpt>
      <trkpt lat="45.35634" lon="5.71896">
        <ele>1399.2</ele>
        <time>2012-02-09T10:22:27Z</time>
      </trkpt>
      <trkpt lat="45.35635" lon="5.71984">
        <ele>1399.8</ele>
        <time>2012-02-09T10:22:56Z</time>
      </trkpt>
      <trkpt lat="45.35645" lon="5.71997">
        <ele>1399</ele>
        <time>2012-02-09T10:23:11Z</time>
      </trkpt>
      <trkpt lat="45.35609" lon="5.71977">
        <ele>1400</ele>
        <time>2012-02-09T10:24:08Z</time>
      </trkpt>
      <trkpt lat="45.3561" lon="5.71993">
        <ele>1403.4</ele>
        <time>2012-02-09T10:24:30Z</time>
      </trkpt>
      <trkpt lat="45.35571" lon="5.71985">
        <ele>1413.5</ele>
        <time>2012-02-09T10:25:38Z</time>
      </trkpt>
      <trkpt lat="45.3555" lon="5.71952">
        <ele>1416.9</ele>
        <time>2012-02-09T10:26:21Z</time>
      </trkpt>
      <trkpt lat="45.3553" lon="5.7196">
        <ele>1411.3</ele>
        <time>2012-02-09T10:26:43Z</time>
      </trkpt>
      <trkpt lat="45.35414" lon="5.71845">
        <ele>1423.8</ele>
        <time>2012-02-09T10:29:50Z</time>
      </trkpt>
      <trkpt lat="45.35365" lon="5.71837">
        <ele>1422</ele>
        <time>2012-02-09T10:31:00Z</time>
      </trkpt>
      <trkpt lat="45.35327" lon="5.71798">
        <ele>1420.1</ele>
        <time>2012-02-09T10:31:47Z</time>
      </trkpt>
      <trkpt lat="45.35256" lon="5.71767">
        <ele>1413.6</ele>
        <time>2012-02-09T10:32:53Z</time>
      </trkpt>
      <trkpt lat="45.3524" lon="5.71744">
        <ele>1410.9</ele>
        <time>2012-02-09T10:33:25Z</time>
      </trkpt>
      <trkpt lat="45.35235" lon="5.7178">
        <ele>1406.8</ele>
        <time>2012-02-09T10:35:03Z</time>
      </trkpt>
      <trkpt lat="45.35223" lon="5.7178">
        <ele>1406.5</ele>
        <time>2012-02-09T10:35:46Z</time>
      </trkpt>
      <trkpt lat="45.35235" lon="5.71795">
        <ele>1407.2</ele>
        <time>2012-02-09T10:36:39Z</time>
      </trkpt>
      <trkpt lat="45.35221" lon="5.71781">
        <ele>1406.7</ele>
        <time>2012-02-09T10:37:33Z</time>
      </trkpt>
      <trkpt lat="45.3523" lon="5.71793">
        <ele>1405.7</ele>
        <time>2012-02-09T10:37:59Z</time>
      </trkpt>
      <trkpt lat="45.35231" lon="5.71777">
        <ele>1406.2</ele>
        <time>2012-02-09T10:39:01Z</time>
      </trkpt>
      <trkpt lat="45.35236" lon="5.71798">
        <ele>1405.5</ele>
        <time>2012-02-09T10:39:39Z</time>
      </trkpt>
      <trkpt lat="45.35205" lon="5.71773">
        <ele>1400.4</ele>
        <time>2012-02-09T10:40:23Z</time>
      </trkpt>
      <trkpt lat="45.35135" lon="5.71793">
        <ele>1405.4</ele>
        <time>2012-02-09T10:42:23Z</time>
      </trkpt>
      <trkpt lat="45.35079" lon="5.71775">
        <ele>1409.6</ele>
        <time>2012-02-09T10:43:46Z</time>
      </trkpt>
      <trkpt lat="45.35072" lon="5.71794">
        <ele>1414.4</ele>
        <time>2012-02-09T10:44:21Z</time>
      </trkpt>
      <trkpt lat="45.35017" lon="5.71796">
        <ele>1430.3</ele>
        <time>2012-02-09T10:46:02Z</time>
      </trkpt>
      <trkpt lat="45.35029" lon="5.71818">
        <ele>1437.1</ele>
        <time>2012-02-09T10:46:47Z</time>
      </trkpt>
      <trkpt lat="45.35" lon="5.71801">
        <ele>1440.1</ele>
        <time>2012-02-09T10:47:38Z</time>
      </trkpt>
      <trkpt lat="45.35003" lon="5.71813">
        <ele>1440.8</ele>
        <time>2012-02-09T10:47:53Z</time>
      </trkpt>
      <trkpt lat="45.34977" lon="5.71851">
        <ele>1454.6</ele>
        <time>2012-02-09T10:49:15Z</time>
      </trkpt>
      <trkpt lat="45.34943" lon="5.71861">
        <ele>1467.1</ele>
        <time>2012-02-09T10:50:21Z</time>
      </trkpt>
      <trkpt lat="45.3496" lon="5.71867">
        <ele>1470.3</ele>
        <time>2012-02-09T10:50:59Z</time>
      </trkpt>
      <trkpt lat="45.34959" lon="5.71886">
        <ele>1477</ele>
        <time>2012-02-09T10:52:04Z</time>
      </trkpt>
      <trkpt lat="45.34941" lon="5.71898">
        <ele>1482.3</ele>
        <time>2012-02-09T10:53:20Z</time>
      </trkpt>
      <trkpt lat="45.34894" lon="5.71837">
        <ele>1493.7</ele>
        <time>2012-02-09T10:54:33Z</time>
      </trkpt>
      <trkpt lat="45.3482" lon="5.71803">
        <ele>1496.9</ele>
        <time>2012-02-09T10:56:04Z</time>
      </trkpt>
      <trkpt lat="45.34806" lon="5.71828">
        <ele>1503</ele>
        <time>2012-02-09T10:56:36Z</time>
      </trkpt>
      <trkpt lat="45.3477" lon="5.71829">
        <ele>1507.3</ele>
        <time>2012-02-09T10:57:15Z</time>
      </trkpt>
      <trkpt lat="45.3474" lon="5.71798">
        <ele>1510.1</ele>
        <time>2012-02-09T10:58:50Z</time>
      </trkpt>
      <trkpt lat="45.3475" lon="5.71812">
        <ele>1509.8</ele>
        <time>2012-02-09T10:59:33Z</time>
      </trkpt>
      <trkpt lat="45.34747" lon="5.71802">
        <ele>1510.4</ele>
        <time>2012-02-09T11:00:06Z</time>
      </trkpt>
      <trkpt lat="45.3476" lon="5.7182">
        <ele>1511</ele>
        <time>2012-02-09T11:00:42Z</time>
      </trkpt>
      <trkpt lat="45.34715" lon="5.71786">
        <ele>1511</ele>
        <time>2012-02-09T11:01:48Z</time>
      </trkpt>
      <trkpt lat="45.347" lon="5.71793">
        <ele>1510.8</ele>
        <time>2012-02-09T11:02:01Z</time>
      </trkpt>
      <trkpt lat="45.34635" lon="5.71735">
        <ele>1516.1</ele>
        <time>2012-02-09T11:03:58Z</time>
      </trkpt>
      <trkpt lat="45.34514" lon="5.71685">
        <ele>1530.3</ele>
        <time>2012-02-09T11:05:57Z</time>
      </trkpt>
      <trkpt lat="45.34495" lon="5.71689">
        <ele>1533.2</ele>
        <time>2012-02-09T11:06:19Z</time>
      </trkpt>
      <trkpt lat="45.3449" lon="5.71719">
        <ele>1539.5</ele>
        <time>2012-02-09T11:06:57Z</time>
      </trkpt>
      <trkpt lat="45.34357" lon="5.71667">
        <ele>1561.1</ele>
        <time>2012-02-09T11:09:44Z</time>
      </trkpt>
      <trkpt lat="45.34317" lon="5.71562">
        <ele>1591.5</ele>
        <time>2012-02-09T11:12:04Z</time>
      </trkpt>
      <trkpt lat="45.34268" lon="5.71542">
        <ele>1605</ele>
        <time>2012-02-09T11:13:16Z</time>
      </trkpt>
      <trkpt lat="45.34236" lon="5.71576">
        <ele>1615.2</ele>
        <time>2012-02-09T11:15:33Z</time>
      </trkpt>
      <trkpt lat="45.34172" lon="5.71468">
        <ele>1640.5</ele>
        <time>2012-02-09T11:17:54Z</time>
      </trkpt>
      <trkpt lat="45.33985" lon="5.71331">
        <ele>1671.3</ele>
        <time>2012-02-09T11:22:32Z</time>
      </trkpt>
      <trkpt lat="45.33876" lon="5.71183">
        <ele>1709.3</ele>
        <time>2012-02-09T11:25:35Z</time>
      </trkpt>
      <trkpt lat="45.33829" lon="5.71171">
        <ele>1723.8</ele>
        <time>2012-02-09T11:26:30Z</time>
      </trkpt>
      <trkpt lat="45.33836" lon="5.71111">
        <ele>1733.5</ele>
        <time>2012-02-09T11:27:16Z</time>
      </trkpt>
      <trkpt lat="45.3382" lon="5.71058">
        <ele>1744.9</ele>
        <time>2012-02-09T11:28:02Z</time>
      </trkpt>
      <trkpt lat="45.33794" lon="5.71073">
        <ele>1756.1</ele>
        <time>2012-02-09T11:28:34Z</time>
      </trkpt>
      <trkpt lat="45.33766" lon="5.7103">
        <ele>1774.6</ele>
        <time>2012-02-09T11:29:17Z</time>
      </trkpt>
      <trkpt lat="45.33764" lon="5.70994">
        <ele>1779.9</ele>
        <time>2012-02-09T11:29:42Z</time>
      </trkpt>
      <trkpt lat="45.33775" lon="5.70989">
        <ele>1775.3</ele>
        <time>2012-02-09T11:29:54Z</time>
      </trkpt>
      <trkpt lat="45.33766" lon="5.70948">
        <ele>1784.7</ele>
        <time>2012-02-09T11:30:42Z</time>
      </trkpt>
      <trkpt lat="45.33777" lon="5.70947">
        <ele>1787.2</ele>
        <time>2012-02-09T11:31:09Z</time>
      </trkpt>
      <trkpt lat="45.33793" lon="5.70904">
        <ele>1797.8</ele>
        <time>2012-02-09T11:31:48Z</time>
      </trkpt>
      <trkpt lat="45.33783" lon="5.70904">
        <ele>1793.8</ele>
        <time>2012-02-09T11:34:40Z</time>
      </trkpt>
      <trkpt lat="45.33797" lon="5.70907">
        <ele>1797.6</ele>
        <time>2012-02-09T11:34:56Z</time>
      </trkpt>
      <trkpt lat="45.33787" lon="5.70908">
        <ele>1803.7</ele>
        <time>2012-02-09T11:35:57Z</time>
      </trkpt>
      <trkpt lat="45.33803" lon="5.70896">
        <ele>1800.8</ele>
        <time>2012-02-09T11:36:31Z</time>
      </trkpt>
      <trkpt lat="45.33795" lon="5.70849">
        <ele>1822.7</ele>
        <time>2012-02-09T11:37:14Z</time>
      </trkpt>
      <trkpt lat="45.33812" lon="5.70844">
        <ele>1819.4</ele>
        <time>2012-02-09T11:37:45Z</time>
      </trkpt>
      <trkpt lat="45.33796" lon="5.70801">
        <ele>1839.9</ele>
        <time>2012-02-09T11:38:54Z</time>
      </trkpt>
      <trkpt lat="45.33817" lon="5.70796">
        <ele>1840.8</ele>
        <time>2012-02-09T11:39:27Z</time>
      </trkpt>
      <trkpt lat="45.338" lon="5.70762">
        <ele>1847.9</ele>
        <time>2012-02-09T11:40:38Z</time>
      </trkpt>
      <trkpt lat="45.33834" lon="5.70764">
        <ele>1862.1</ele>
        <time>2012-02-09T11:41:27Z</time>
      </trkpt>
      <trkpt lat="45.33781" lon="5.7065">
        <ele>1844</ele>
        <time>2012-02-09T11:44:15Z</time>
      </trkpt>
      <trkpt lat="45.33796" lon="5.70628">
        <ele>1850.6</ele>
        <time>2012-02-09T11:44:51Z</time>
      </trkpt>
      <trkpt lat="45.33762" lon="5.7059">
        <ele>1868.8</ele>
        <time>2012-02-09T11:45:54Z</time>
      </trkpt>
      <trkpt lat="45.33703" lon="5.70473">
        <ele>1886.6</ele>
        <time>2012-02-09T11:48:00Z</time>
      </trkpt>
      <trkpt lat="45.33702" lon="5.70448">
        <ele>1883.1</ele>
        <time>2012-02-09T11:48:13Z</time>
      </trkpt>
      <trkpt lat="45.33644" lon="5.70441">
        <ele>1868.7</ele>
        <time>2012-02-09T11:48:57Z</time>
      </trkpt>
      <trkpt lat="45.3362" lon="5.70383">
        <ele>1884.2</ele>
        <time>2012-02-09T11:49:58Z</time>
      </trkpt>
      <trkpt lat="45.33597" lon="5.70364">
        <ele>1895.4</ele>
        <time>2012-02-09T11:50:41Z</time>
      </trkpt>
      <trkpt lat="45.33576" lon="5.70376">
        <ele>1905.7</ele>
        <time>2012-02-09T11:51:18Z</time>
      </trkpt>
      <trkpt lat="45.33539" lon="5.7034">
        <ele>1929.6</ele>
        <time>2012-02-09T11:52:20Z</time>
      </trkpt>
      <trkpt lat="45.33513" lon="5.70287">
        <ele>1939.2</ele>
        <time>2012-02-09T11:53:12Z</time>
      </trkpt>
      <trkpt lat="45.33546" lon="5.70306">
        <ele>1927</ele>
        <time>2012-02-09T11:54:01Z</time>
      </trkpt>
      <trkpt lat="45.33528" lon="5.70291">
        <ele>1933.7</ele>
        <time>2012-02-09T11:54:41Z</time>
      </trkpt>
      <trkpt lat="45.33522" lon="5.70316">
        <ele>1929.8</ele>
        <time>2012-02-09T11:54:50Z</time>
      </trkpt>
      <trkpt lat="45.33527" lon="5.70291">
        <ele>1928</ele>
        <time>2012-02-09T11:55:10Z</time>
      </trkpt>
      <trkpt lat="45.33532" lon="5.70331">
        <ele>1931.2</ele>
        <time>2012-02-09T11:55:27Z</time>
      </trkpt>
      <trkpt lat="45.33525" lon="5.70288">
        <ele>1930.9</ele>
        <time>2012-02-09T11:58:28Z</time>
      </trkpt>
      <trkpt lat="45.33538" lon="5.70334">
        <ele>1927.8</ele>
        <time>2012-02-09T12:00:05Z</time>
      </trkpt>
      <trkpt lat="45.33581" lon="5.70368">
        <ele>1908.8</ele>
        <time>2012-02-09T12:00:22Z</time>
      </trkpt>
      <trkpt lat="45.33599" lon="5.70445">
        <ele>1875.2</ele>
        <time>2012-02-09T12:00:50Z</time>
      </trkpt>
      <trkpt lat="45.33645" lon="5.70476">
        <ele>1859.3</ele>
        <time>2012-02-09T12:01:07Z</time>
      </trkpt>
      <trkpt lat="45.33742" lon="5.70658">
        <ele>1816.5</ele>
        <time>2012-02-09T12:02:02Z</time>
      </trkpt>
      <trkpt lat="45.33735" lon="5.70663">
        <ele>1811.4</ele>
        <time>2012-02-09T12:02:06Z</time>
      </trkpt>
      <trkpt lat="45.33807" lon="5.70887">
        <ele>1778.5</ele>
        <time>2012-02-09T12:03:01Z</time>
      </trkpt>
      <trkpt lat="45.33781" lon="5.70947">
        <ele>1760.6</ele>
        <time>2012-02-09T12:03:24Z</time>
      </trkpt>
      <trkpt lat="45.33785" lon="5.70972">
        <ele>1756.3</ele>
        <time>2012-02-09T12:03:30Z</time>
      </trkpt>
      <trkpt lat="45.33806" lon="5.70985">
        <ele>1748.5</ele>
        <time>2012-02-09T12:03:36Z</time>
      </trkpt>
      <trkpt lat="45.3383" lon="5.71037">
        <ele>1723</ele>
        <time>2012-02-09T12:03:46Z</time>
      </trkpt>
      <trkpt lat="45.3383" lon="5.71117">
        <ele>1702.8</ele>
        <time>2012-02-09T12:03:56Z</time>
      </trkpt>
      <trkpt lat="45.3388" lon="5.71204">
        <ele>1676.8</ele>
        <time>2012-02-09T12:04:10Z</time>
      </trkpt>
      <trkpt lat="45.34035" lon="5.714">
        <ele>1626.3</ele>
        <time>2012-02-09T12:04:40Z</time>
      </trkpt>
      <trkpt lat="45.34116" lon="5.71477">
        <ele>1613.7</ele>
        <time>2012-02-09T12:05:16Z</time>
      </trkpt>
      <trkpt lat="45.34138" lon="5.7144">
        <ele>1608.7</ele>
        <time>2012-02-09T12:05:29Z</time>
      </trkpt>
      <trkpt lat="45.34178" lon="5.71471">
        <ele>1603.4</ele>
        <time>2012-02-09T12:05:46Z</time>
      </trkpt>
      <trkpt lat="45.34203" lon="5.71528">
        <ele>1595.3</ele>
        <time>2012-02-09T12:05:57Z</time>
      </trkpt>
      <trkpt lat="45.34318" lon="5.71652">
        <ele>1562.1</ele>
        <time>2012-02-09T12:07:14Z</time>
      </trkpt>
      <trkpt lat="45.34346" lon="5.71725">
        <ele>1543.4</ele>
        <time>2012-02-09T12:07:41Z</time>
      </trkpt>
      <trkpt lat="45.34376" lon="5.71706">
        <ele>1532.5</ele>
        <time>2012-02-09T12:07:48Z</time>
      </trkpt>
      <trkpt lat="45.34496" lon="5.71729">
        <ele>1501.6</ele>
        <time>2012-02-09T12:09:29Z</time>
      </trkpt>
      <trkpt lat="45.34544" lon="5.71712">
        <ele>1489.9</ele>
        <time>2012-02-09T12:09:55Z</time>
      </trkpt>
      <trkpt lat="45.34627" lon="5.71738">
        <ele>1481.5</ele>
        <time>2012-02-09T12:10:21Z</time>
      </trkpt>
      <trkpt lat="45.34683" lon="5.71788">
        <ele>1475.3</ele>
        <time>2012-02-09T12:10:36Z</time>
      </trkpt>
      <trkpt lat="45.34676" lon="5.71809">
        <ele>1473.6</ele>
        <time>2012-02-09T12:12:16Z</time>
      </trkpt>
      <trkpt lat="45.34685" lon="5.71811">
        <ele>1474.2</ele>
        <time>2012-02-09T12:16:36Z</time>
      </trkpt>
      <trkpt lat="45.34673" lon="5.71803">
        <ele>1473.1</ele>
        <time>2012-02-09T12:24:33Z</time>
      </trkpt>
      <trkpt lat="45.34686" lon="5.718">
        <ele>1474.5</ele>
        <time>2012-02-09T12:27:47Z</time>
      </trkpt>
      <trkpt lat="45.34675" lon="5.71866">
        <ele>1478.5</ele>
        <time>2012-02-09T12:28:46Z</time>
      </trkpt>
      <trkpt lat="45.34706" lon="5.71988">
        <ele>1503.9</ele>
        <time>2012-02-09T12:30:57Z</time>
      </trkpt>
      <trkpt lat="45.34728" lon="5.71999">
        <ele>1512.2</ele>
        <time>2012-02-09T12:31:31Z</time>
      </trkpt>
      <trkpt lat="45.34696" lon="5.72034">
        <ele>1518.5</ele>
        <time>2012-02-09T12:32:51Z</time>
      </trkpt>
      <trkpt lat="45.34581" lon="5.72083">
        <ele>1552.6</ele>
        <time>2012-02-09T12:36:17Z</time>
      </trkpt>
      <trkpt lat="45.34592" lon="5.72101">
        <ele>1559</ele>
        <time>2012-02-09T12:36:46Z</time>
      </trkpt>
      <trkpt lat="45.34582" lon="5.72119">
        <ele>1564.3</ele>
        <time>2012-02-09T12:37:09Z</time>
      </trkpt>
      <trkpt lat="45.34626" lon="5.72165">
        <ele>1582</ele>
        <time>2012-02-09T12:38:39Z</time>
      </trkpt>
      <trkpt lat="45.34618" lon="5.72207">
        <ele>1596.4</ele>
        <time>2012-02-09T12:39:26Z</time>
      </trkpt>
      <trkpt lat="45.34685" lon="5.72265">
        <ele>1618.5</ele>
        <time>2012-02-09T12:41:19Z</time>
      </trkpt>
      <trkpt lat="45.34637" lon="5.72299">
        <ele>1626</ele>
        <time>2012-02-09T12:42:33Z</time>
      </trkpt>
      <trkpt lat="45.34656" lon="5.72281">
        <ele>1626.5</ele>
        <time>2012-02-09T12:42:41Z</time>
      </trkpt>
      <trkpt lat="45.34664" lon="5.72293">
        <ele>1626.8</ele>
        <time>2012-02-09T12:42:43Z</time>
      </trkpt>
      <trkpt lat="45.34607" lon="5.72331">
        <ele>1644.5</ele>
        <time>2012-02-09T12:44:41Z</time>
      </trkpt>
      <trkpt lat="45.34517" lon="5.72344">
        <ele>1632.7</ele>
        <time>2012-02-09T12:46:44Z</time>
      </trkpt>
      <trkpt lat="45.34474" lon="5.72375">
        <ele>1640.1</ele>
        <time>2012-02-09T12:48:53Z</time>
      </trkpt>
      <trkpt lat="45.34489" lon="5.72403">
        <ele>1646.7</ele>
        <time>2012-02-09T12:49:37Z</time>
      </trkpt>
      <trkpt lat="45.3453" lon="5.72366">
        <ele>1664.7</ele>
        <time>2012-02-09T12:51:25Z</time>
      </trkpt>
      <trkpt lat="45.34553" lon="5.72413">
        <ele>1677.6</ele>
        <time>2012-02-09T12:52:40Z</time>
      </trkpt>
      <trkpt lat="45.34563" lon="5.72397">
        <ele>1684.9</ele>
        <time>2012-02-09T12:53:12Z</time>
      </trkpt>
      <trkpt lat="45.34573" lon="5.72415">
        <ele>1689.4</ele>
        <time>2012-02-09T12:53:42Z</time>
      </trkpt>
      <trkpt lat="45.34588" lon="5.72386">
        <ele>1698.9</ele>
        <time>2012-02-09T12:54:32Z</time>
      </trkpt>
      <trkpt lat="45.34606" lon="5.72418">
        <ele>1708.7</ele>
        <time>2012-02-09T12:55:35Z</time>
      </trkpt>
      <trkpt lat="45.34608" lon="5.72399">
        <ele>1712</ele>
        <time>2012-02-09T12:56:04Z</time>
      </trkpt>
      <trkpt lat="45.34619" lon="5.72406">
        <ele>1717.3</ele>
        <time>2012-02-09T12:56:30Z</time>
      </trkpt>
      <trkpt lat="45.34624" lon="5.7239">
        <ele>1720.4</ele>
        <time>2012-02-09T12:56:58Z</time>
      </trkpt>
      <trkpt lat="45.34679" lon="5.7242">
        <ele>1736.9</ele>
        <time>2012-02-09T13:00:56Z</time>
      </trkpt>
      <trkpt lat="45.34671" lon="5.72407">
        <ele>1735.9</ele>
        <time>2012-02-09T13:03:54Z</time>
      </trkpt>
      <trkpt lat="45.3467" lon="5.72431">
        <ele>1735</ele>
        <time>2012-02-09T13:04:34Z</time>
      </trkpt>
      <trkpt lat="45.3465" lon="5.72427">
        <ele>1726.5</ele>
        <time>2012-02-09T13:04:42Z</time>
      </trkpt>
      <trkpt lat="45.34635" lon="5.72468">
        <ele>1717.8</ele>
        <time>2012-02-09T13:04:55Z</time>
      </trkpt>
      <trkpt lat="45.3463" lon="5.72543">
        <ele>1701.6</ele>
        <time>2012-02-09T13:05:11Z</time>
      </trkpt>
      <trkpt lat="45.34615" lon="5.72554">
        <ele>1690.7</ele>
        <time>2012-02-09T13:05:25Z</time>
      </trkpt>
      <trkpt lat="45.34618" lon="5.72593">
        <ele>1684.3</ele>
        <time>2012-02-09T13:05:31Z</time>
      </trkpt>
      <trkpt lat="45.34587" lon="5.72716">
        <ele>1653.1</ele>
        <time>2012-02-09T13:06:06Z</time>
      </trkpt>
      <trkpt lat="45.34576" lon="5.72721">
        <ele>1650.3</ele>
        <time>2012-02-09T13:06:12Z</time>
      </trkpt>
      <trkpt lat="45.34571" lon="5.72771">
        <ele>1638.3</ele>
        <time>2012-02-09T13:06:50Z</time>
      </trkpt>
      <trkpt lat="45.3456" lon="5.72773">
        <ele>1630.5</ele>
        <time>2012-02-09T13:07:04Z</time>
      </trkpt>
      <trkpt lat="45.3454" lon="5.7274">
        <ele>1631.2</ele>
        <time>2012-02-09T13:07:35Z</time>
      </trkpt>
      <trkpt lat="45.34528" lon="5.72747">
        <ele>1626.9</ele>
        <time>2012-02-09T13:08:32Z</time>
      </trkpt>
      <trkpt lat="45.34544" lon="5.7279">
        <ele>1591.5</ele>
        <time>2012-02-09T13:09:34Z</time>
      </trkpt>
      <trkpt lat="45.34543" lon="5.72856">
        <ele>1547.2</ele>
        <time>2012-02-09T13:10:55Z</time>
      </trkpt>
      <trkpt lat="45.34574" lon="5.72903">
        <ele>1515.3</ele>
        <time>2012-02-09T13:11:24Z</time>
      </trkpt>
      <trkpt lat="45.34587" lon="5.72959">
        <ele>1489.4</ele>
        <time>2012-02-09T13:12:15Z</time>
      </trkpt>
      <trkpt lat="45.34595" lon="5.72954">
        <ele>1481.2</ele>
        <time>2012-02-09T13:12:21Z</time>
      </trkpt>
      <trkpt lat="45.34595" lon="5.73009">
        <ele>1449.6</ele>
        <time>2012-02-09T13:12:51Z</time>
      </trkpt>
      <trkpt lat="45.3463" lon="5.73063">
        <ele>1433.6</ele>
        <time>2012-02-09T13:13:13Z</time>
      </trkpt>
      <trkpt lat="45.34611" lon="5.73166">
        <ele>1409.9</ele>
        <time>2012-02-09T13:13:53Z</time>
      </trkpt>
      <trkpt lat="45.34597" lon="5.73182">
        <ele>1404.4</ele>
        <time>2012-02-09T13:14:20Z</time>
      </trkpt>
      <trkpt lat="45.34604" lon="5.7319">
        <ele>1402.6</ele>
        <time>2012-02-09T13:14:37Z</time>
      </trkpt>
      <trkpt lat="45.34595" lon="5.7319">
        <ele>1402.9</ele>
        <time>2012-02-09T13:15:03Z</time>
      </trkpt>
      <trkpt lat="45.3459" lon="5.73269">
        <ele>1385.6</ele>
        <time>2012-02-09T13:15:37Z</time>
      </trkpt>
      <trkpt lat="45.34546" lon="5.73324">
        <ele>1376.6</ele>
        <time>2012-02-09T13:15:59Z</time>
      </trkpt>
      <trkpt lat="45.3454" lon="5.73358">
        <ele>1364.9</ele>
        <time>2012-02-09T13:16:34Z</time>
      </trkpt>
      <trkpt lat="45.34556" lon="5.73384">
        <ele>1353.6</ele>
        <time>2012-02-09T13:16:58Z</time>
      </trkpt>
      <trkpt lat="45.34557" lon="5.73455">
        <ele>1335.8</ele>
        <time>2012-02-09T13:17:36Z</time>
      </trkpt>
      <trkpt lat="45.34548" lon="5.73456">
        <ele>1336.4</ele>
        <time>2012-02-09T13:17:53Z</time>
      </trkpt>
      <trkpt lat="45.34559" lon="5.73437">
        <ele>1331.8</ele>
        <time>2012-02-09T13:18:07Z</time>
      </trkpt>
      <trkpt lat="45.34589" lon="5.73456">
        <ele>1329.1</ele>
        <time>2012-02-09T13:18:39Z</time>
      </trkpt>
      <trkpt lat="45.34616" lon="5.7344">
        <ele>1321.5</ele>
        <time>2012-02-09T13:18:52Z</time>
      </trkpt>
      <trkpt lat="45.34665" lon="5.73441">
        <ele>1311</ele>
        <time>2012-02-09T13:19:11Z</time>
      </trkpt>
      <trkpt lat="45.34762" lon="5.73402">
        <ele>1296.9</ele>
        <time>2012-02-09T13:20:17Z</time>
      </trkpt>
      <trkpt lat="45.34833" lon="5.7345">
        <ele>1290.1</ele>
        <time>2012-02-09T13:21:33Z</time>
      </trkpt>
      <trkpt lat="45.34814" lon="5.7346">
        <ele>1282.7</ele>
        <time>2012-02-09T13:21:40Z</time>
      </trkpt>
      <trkpt lat="45.34782" lon="5.73542">
        <ele>1253</ele>
        <time>2012-02-09T13:22:02Z</time>
      </trkpt>
      <trkpt lat="45.34786" lon="5.73587">
        <ele>1237.1</ele>
        <time>2012-02-09T13:22:18Z</time>
      </trkpt>
      <trkpt lat="45.34818" lon="5.73649">
        <ele>1215.4</ele>
        <time>2012-02-09T13:22:34Z</time>
      </trkpt>
      <trkpt lat="45.34765" lon="5.7373">
        <ele>1193.8</ele>
        <time>2012-02-09T13:23:17Z</time>
      </trkpt>
      <trkpt lat="45.34781" lon="5.73751">
        <ele>1187.9</ele>
        <time>2012-02-09T13:23:30Z</time>
      </trkpt>
      <trkpt lat="45.34772" lon="5.73776">
        <ele>1181.5</ele>
        <time>2012-02-09T13:23:37Z</time>
      </trkpt>
      <trkpt lat="45.34782" lon="5.73823">
        <ele>1166.5</ele>
        <time>2012-02-09T13:23:47Z</time>
      </trkpt>
      <trkpt lat="45.34756" lon="5.73866">
        <ele>1160.7</ele>
        <time>2012-02-09T13:24:30Z</time>
      </trkpt>
      <trkpt lat="45.34744" lon="5.7395">
        <ele>1153.4</ele>
        <time>2012-02-09T13:24:56Z</time>
      </trkpt>
      <trkpt lat="45.34756" lon="5.74028">
        <ele>1144.4</ele>
        <time>2012-02-09T13:25:07Z</time>
      </trkpt>
      <trkpt lat="45.34743" lon="5.74046">
        <ele>1140.2</ele>
        <time>2012-02-09T13:25:13Z</time>
      </trkpt>
      <trkpt lat="45.34743" lon="5.74093">
        <ele>1135.3</ele>
        <time>2012-02-09T13:25:19Z</time>
      </trkpt>
      <trkpt lat="45.34701" lon="5.74209">
        <ele>1116.7</ele>
        <time>2012-02-09T13:25:36Z</time>
      </trkpt>
      <trkpt lat="45.34699" lon="5.74272">
        <ele>1088.8</ele>
        <time>2012-02-09T13:25:52Z</time>
      </trkpt>
      <trkpt lat="45.3471" lon="5.74289">
        <ele>1081.6</ele>
        <time>2012-02-09T13:25:58Z</time>
      </trkpt>
      <trkpt lat="45.34706" lon="5.7428">
        <ele>1075.1</ele>
        <time>2012-02-09T13:26:09Z</time>
      </trkpt>
      <trkpt lat="45.3471" lon="5.74291">
        <ele>1069.2</ele>
        <time>2012-02-09T13:26:18Z</time>
      </trkpt>
      <trkpt lat="45.34714" lon="5.74279">
        <ele>1081.1</ele>
        <time>2012-02-09T13:26:26Z</time>
      </trkpt>
      <trkpt lat="45.34744" lon="5.74315">
        <ele>1069.6</ele>
        <time>2012-02-09T13:26:36Z</time>
      </trkpt>
      <trkpt lat="45.34774" lon="5.7441">
        <ele>1040.9</ele>
        <time>2012-02-09T13:26:57Z</time>
      </trkpt>
      <trkpt lat="45.3482" lon="5.74486">
        <ele>1024.4</ele>
        <time>2012-02-09T13:27:15Z</time>
      </trkpt>
      <trkpt lat="45.34826" lon="5.74594">
        <ele>1011.2</ele>
        <time>2012-02-09T13:27:30Z</time>
      </trkpt>
      <trkpt lat="45.34863" lon="5.7474">
        <ele>1001.9</ele>
        <time>2012-02-09T13:28:19Z</time>
      </trkpt>
      <trkpt lat="45.34857" lon="5.74756">
        <ele>1000.1</ele>
        <time>2012-02-09T13:28:28Z</time>
      </trkpt>
      <trkpt lat="45.34879" lon="5.74793">
        <ele>996.1</ele>
        <time>2012-02-09T13:29:03Z</time>
      </trkpt>
      <trkpt lat="45.34885" lon="5.74846">
        <ele>992.4</ele>
        <time>2012-02-09T13:29:21Z</time>
      </trkpt>
      <trkpt lat="45.34869" lon="5.7493">
        <ele>977.5</ele>
        <time>2012-02-09T13:29:33Z</time>
      </trkpt>
      <trkpt lat="45.34918" lon="5.74898">
        <ele>964.1</ele>
        <time>2012-02-09T13:29:58Z</time>
      </trkpt>
      <trkpt lat="45.34903" lon="5.74762">
        <ele>962.3</ele>
        <time>2012-02-09T13:30:37Z</time>
      </trkpt>
      <trkpt lat="45.34893" lon="5.7476">
        <ele>962.6</ele>
        <time>2012-02-09T13:30:41Z</time>
      </trkpt>
      <trkpt lat="45.3491" lon="5.74596">
        <ele>961.3</ele>
        <time>2012-02-09T13:32:32Z</time>
      </trkpt>
      <trkpt lat="45.34822" lon="5.74506">
        <ele>958</ele>
        <time>2012-02-09T13:33:07Z</time>
      </trkpt>
      <trkpt lat="45.34849" lon="5.74459">
        <ele>957.5</ele>
        <time>2012-02-09T13:33:25Z</time>
      </trkpt>
      <trkpt lat="45.34883" lon="5.74461">
        <ele>955.6</ele>
        <time>2012-02-09T13:33:42Z</time>
      </trkpt>
      <trkpt lat="45.3511" lon="5.74672">
        <ele>929.4</ele>
        <time>2012-02-09T13:34:41Z</time>
      </trkpt>
      <trkpt lat="45.35196" lon="5.7479">
        <ele>917.2</ele>
        <time>2012-02-09T13:35:10Z</time>
      </trkpt>
      <trkpt lat="45.3526" lon="5.74834">
        <ele>913.6</ele>
        <time>2012-02-09T13:36:26Z</time>
      </trkpt>
      <trkpt lat="45.35236" lon="5.74861">
        <ele>912.7</ele>
        <time>2012-02-09T13:36:33Z</time>
      </trkpt>
      <trkpt lat="45.35194" lon="5.7468">
        <ele>913.1</ele>
        <time>2012-02-09T13:37:06Z</time>
      </trkpt>
      <trkpt lat="45.35243" lon="5.74854">
        <ele>911</ele>
        <time>2012-02-09T13:37:31Z</time>
      </trkpt>
      <trkpt lat="45.35259" lon="5.74852">
        <ele>911.9</ele>
        <time>2012-02-09T13:37:38Z</time>
      </trkpt>
      <trkpt lat="45.35266" lon="5.74888">
        <ele>912</ele>
        <time>2012-02-09T13:38:02Z</time>
      </trkpt>
      <trkpt lat="45.35245" lon="5.74861">
        <ele>911.7</ele>
        <time>2012-02-09T13:38:11Z</time>
      </trkpt>
      <trkpt lat="45.35327" lon="5.74923">
        <ele>901.7</ele>
        <time>2012-02-09T13:38:38Z</time>
      </trkpt>
      <trkpt lat="45.35396" lon="5.75002">
        <ele>889.1</ele>
        <time>2012-02-09T13:39:09Z</time>
      </trkpt>
      <trkpt lat="45.35417" lon="5.74972">
        <ele>889</ele>
        <time>2012-02-09T13:39:24Z</time>
      </trkpt>
      <trkpt lat="45.35393" lon="5.75008">
        <ele>889.3</ele>
        <time>2012-02-09T13:40:05Z</time>
      </trkpt>
      <trkpt lat="45.35628" lon="5.74849">
        <ele>870.8</ele>
        <time>2012-02-09T13:46:46Z</time>
      </trkpt>
      <trkpt lat="45.35663" lon="5.74851">
        <ele>866</ele>
        <time>2012-02-09T13:47:08Z</time>
      </trkpt>
      <trkpt lat="45.35626" lon="5.74864">
        <ele>867.5</ele>
        <time>2012-02-09T13:47:19Z</time>
      </trkpt>
      <trkpt lat="45.35637" lon="5.74759">
        <ele>862.2</ele>
        <time>2012-02-09T13:47:37Z</time>
      </trkpt>
      <trkpt lat="45.35774" lon="5.74484">
        <ele>841</ele>
        <time>2012-02-09T13:48:36Z</time>
      </trkpt>
      <trkpt lat="45.35782" lon="5.74443">
        <ele>838.4</ele>
        <time>2012-02-09T13:48:45Z</time>
      </trkpt>
    </trkseg>
  </trk>
</gpx>